Time;durP1;ratioP1;P1;durP2;ratioP2;P2;SDS_P1;SDS_P2;PMS_P1;PMS_P2;Temp;Humidity;BMP_temperature;BMP_pressure;BME280_temperature;BME280_humidity;BME280_pressure;Samples;Min_cycle;Max_cycle;Signal;HPM_P1;HPM_P2
2022/03/06 00:02:10;;;;;;;;;90.75;78.00;;;;;;;;5080305;27;48848;-66
2022/03/06 00:04:35;;;;;;;;;90.50;79.75;;;;;;;;5081891;27;45334;-68
2022/03/06 00:07:01;;;;;;;;;90.75;74.25;;;;;;;;5068686;27;45508;-68
2022/03/06 00:09:26;;;;;;;;;91.00;78.50;;;;;;;;5075562;27;45935;-66
2022/03/06 00:11:52;;;;;;;;;83.50;68.25;;;;;;;;5086557;27;45516;-67
2022/03/06 00:14:18;;;;;;;;;88.00;75.50;;;;;;;;5081318;27;45592;-67
2022/03/06 00:16:43;;;;;;;;;84.75;71.00;;;;;;;;5083268;27;45430;-65
2022/03/06 00:19:08;;;;;;;;;86.00;71.00;;;;;;;;5083467;27;45871;-65
2022/03/06 00:21:34;;;;;;;;;92.50;79.25;;;;;;;;5078030;27;48620;-67
2022/03/06 00:23:59;;;;;;;;;90.25;74.75;;;;;;;;5085723;27;45754;-66
2022/03/06 00:26:25;;;;;;;;;88.00;73.75;;;;;;;;5083620;27;45456;-67
2022/03/06 00:28:50;;;;;;;;;87.00;72.00;;;;;;;;5083858;27;45299;-67
2022/03/06 00:31:15;;;;;;;;;88.75;71.25;;;;;;;;5084159;27;48601;-66
2022/03/06 00:33:40;;;;;;;;;86.25;70.75;;;;;;;;5081535;27;45332;-67
2022/03/06 00:36:06;;;;;;;;;89.00;75.75;;;;;;;;5088077;27;45402;-67
2022/03/06 00:38:32;;;;;;;;;86.25;69.75;;;;;;;;5091072;27;45348;-68
2022/03/06 00:40:57;;;;;;;;;83.25;71.25;;;;;;;;5083540;27;47957;-67
2022/03/06 00:43:22;;;;;;;;;89.75;73.00;;;;;;;;5084672;27;45759;-68
2022/03/06 00:45:48;;;;;;;;;87.25;71.75;;;;;;;;5077953;27;45467;-67
2022/03/06 00:48:13;;;;;;;;;87.00;71.00;;;;;;;;5087392;27;46397;-66
2022/03/06 00:50:39;;;;;;;;;84.75;71.25;;;;;;;;5084017;27;45400;-67
2022/03/06 00:53:05;;;;;;;;;84.25;68.75;;;;;;;;5077783;27;45407;-68
2022/03/06 00:55:31;;;;;;;;;85.00;72.25;;;;;;;;5077373;27;45545;-68
2022/03/06 00:57:56;;;;;;;;;87.25;72.00;;;;;;;;5080935;27;45315;-69
2022/03/06 01:00:21;;;;;;;;;83.50;67.50;;;;;;;;5082684;27;45888;-69
2022/03/06 01:02:47;;;;;;;;;85.50;66.75;;;;;;;;5083115;27;45391;-69
2022/03/06 01:05:12;;;;;;;;;84.50;67.00;;;;;;;;5088209;27;45414;-69
2022/03/06 01:07:37;;;;;;;;;80.75;65.00;;;;;;;;5082596;27;45584;-69
2022/03/06 01:10:03;;;;;;;;;77.25;60.50;;;;;;;;5084093;27;47392;-70
2022/03/06 01:12:28;;;;;;;;;84.50;65.25;;;;;;;;5091465;27;45471;-69
2022/03/06 01:14:54;;;;;;;;;80.00;62.00;;;;;;;;5082174;27;45369;-68
2022/03/06 01:17:19;;;;;;;;;84.25;67.25;;;;;;;;5088439;27;45306;-69
2022/03/06 01:19:44;;;;;;;;;80.50;61.75;;;;;;;;5082252;27;45685;-69
2022/03/06 01:22:09;;;;;;;;;82.50;68.00;;;;;;;;5081881;27;45506;-66
2022/03/06 01:24:35;;;;;;;;;83.25;68.00;;;;;;;;5090446;27;45361;-68
2022/03/06 01:27:00;;;;;;;;;79.00;61.25;;;;;;;;5079688;27;45405;-67
2022/03/06 01:29:25;;;;;;;;;85.00;69.00;;;;;;;;5089525;27;47634;-68
2022/03/06 01:31:50;;;;;;;;;80.25;65.75;;;;;;;;5081434;27;45428;-68
2022/03/06 01:34:16;;;;;;;;;77.50;58.50;;;;;;;;5084548;27;45304;-68
2022/03/06 01:36:41;;;;;;;;;84.00;67.75;;;;;;;;5091520;27;45433;-69
2022/03/06 01:39:06;;;;;;;;;82.25;65.00;;;;;;;;5067254;27;47057;-69
2022/03/06 01:41:32;;;;;;;;;78.00;63.00;;;;;;;;5091163;27;45455;-69
2022/03/06 01:43:58;;;;;;;;;82.75;66.00;;;;;;;;5079276;27;45579;-67
2022/03/06 01:46:23;;;;;;;;;84.00;64.75;;;;;;;;5085523;27;45714;-68
2022/03/06 01:48:48;;;;;;;;;81.50;63.00;;;;;;;;5088309;27;48313;-68
2022/03/06 01:51:13;;;;;;;;;83.00;64.75;;;;;;;;5076586;27;45725;-67
2022/03/06 01:53:39;;;;;;;;;84.25;67.00;;;;;;;;5092340;27;45923;-67
2022/03/06 01:56:04;;;;;;;;;79.75;61.50;;;;;;;;5079277;27;45302;-67
2022/03/06 01:58:29;;;;;;;;;80.75;61.75;;;;;;;;5079430;27;47543;-69
2022/03/06 02:00:55;;;;;;;;;85.00;68.25;;;;;;;;5085859;27;46184;-68
2022/03/06 02:03:20;;;;;;;;;81.50;65.00;;;;;;;;5076224;27;45533;-67
2022/03/06 02:05:45;;;;;;;;;87.25;72.00;;;;;;;;5089663;27;45428;-67
2022/03/06 02:08:11;;;;;;;;;80.50;66.75;;;;;;;;5080996;27;46592;-68
2022/03/06 02:10:36;;;;;;;;;87.00;65.25;;;;;;;;5083746;27;45503;-67
2022/03/06 02:13:02;;;;;;;;;83.75;67.50;;;;;;;;5084893;27;45519;-67
2022/03/06 02:15:27;;;;;;;;;84.00;63.00;;;;;;;;5077280;27;45417;-67
2022/03/06 02:17:52;;;;;;;;;81.25;65.00;;;;;;;;5087202;27;47643;-67
2022/03/06 02:20:19;;;;;;;;;82.25;64.25;;;;;;;;5067995;27;45643;-67
2022/03/06 02:22:45;;;;;;;;;76.00;59.00;;;;;;;;5072931;27;45503;-67
2022/03/06 02:25:12;;;;;;;;;82.25;64.50;;;;;;;;5077346;27;45421;-67
2022/03/06 02:27:37;;;;;;;;;76.75;61.00;;;;;;;;5078286;27;48410;-67
2022/03/06 02:30:04;;;;;;;;;81.50;62.50;;;;;;;;5086848;27;45461;-67
2022/03/06 02:32:30;;;;;;;;;81.25;63.00;;;;;;;;5083372;27;45372;-67
2022/03/06 02:34:55;;;;;;;;;84.00;62.75;;;;;;;;5082913;27;45426;-66
2022/03/06 02:37:21;;;;;;;;;77.75;60.50;;;;;;;;5083204;27;45397;-67
2022/03/06 02:39:47;;;;;;;;;72.75;59.25;;;;;;;;5080053;27;45562;-68
2022/03/06 02:42:22;;;;;;;;;71.00;56.00;;;;;;;;5087858;27;45465;-67
2022/03/06 02:44:47;;;;;;;;;75.50;61.25;;;;;;;;5079385;27;45338;-67
2022/03/06 02:47:12;;;;;;;;;78.00;63.00;;;;;;;;5086882;27;46325;-66
2022/03/06 02:49:38;;;;;;;;;78.00;63.00;;;;;;;;5080885;27;45368;-66
2022/03/06 02:52:08;;;;;;;;;77.50;60.75;;;;;;;;5079388;27;45397;-67
2022/03/06 02:54:33;;;;;;;;;86.50;67.00;;;;;;;;5089100;27;45486;-67
2022/03/06 02:56:58;;;;;;;;;73.50;57.75;;;;;;;;5076688;27;46285;-68
2022/03/06 02:59:23;;;;;;;;;82.00;63.75;;;;;;;;5086729;27;45500;-68
2022/03/06 03:01:49;;;;;;;;;78.75;62.75;;;;;;;;5078338;27;45448;-68
2022/03/06 03:04:14;;;;;;;;;85.50;64.50;;;;;;;;5081908;27;45595;-68
2022/03/06 03:06:39;;;;;;;;;79.75;62.75;;;;;;;;5087161;27;47889;-68
2022/03/06 03:09:05;;;;;;;;;78.25;60.25;;;;;;;;5078509;27;45729;-67
2022/03/06 03:11:31;;;;;;;;;74.25;58.75;;;;;;;;5095036;27;45416;-68
2022/03/06 03:13:56;;;;;;;;;75.00;59.50;;;;;;;;5071502;27;45404;-67
2022/03/06 03:16:22;;;;;;;;;73.25;58.50;;;;;;;;5080525;27;46440;-65
2022/03/06 03:18:47;;;;;;;;;74.75;58.75;;;;;;;;5078958;27;46517;-67
2022/03/06 03:21:12;;;;;;;;;74.00;58.50;;;;;;;;5063948;27;45606;-67
2022/03/06 03:23:38;;;;;;;;;77.00;59.00;;;;;;;;5071277;27;45428;-66
2022/03/06 03:26:03;;;;;;;;;73.75;58.25;;;;;;;;5072404;27;46004;-68
2022/03/06 03:28:28;;;;;;;;;81.75;61.50;;;;;;;;5071300;27;45717;-67
2022/03/06 03:30:53;;;;;;;;;81.00;64.00;;;;;;;;5074495;27;45471;-67
2022/03/06 03:33:19;;;;;;;;;84.00;62.25;;;;;;;;5074756;27;45547;-65
2022/03/06 03:35:44;;;;;;;;;82.75;63.25;;;;;;;;5087812;27;48624;-67
2022/03/06 03:38:09;;;;;;;;;79.00;63.50;;;;;;;;5077890;27;46102;-67
2022/03/06 03:40:34;;;;;;;;;83.25;64.00;;;;;;;;5082641;27;45394;-67
2022/03/06 03:42:59;;;;;;;;;78.00;61.75;;;;;;;;5086545;27;45497;-67
2022/03/06 03:45:25;;;;;;;;;77.00;58.25;;;;;;;;5077277;27;48084;-67
2022/03/06 03:47:50;;;;;;;;;86.50;71.00;;;;;;;;5090103;27;46204;-66
2022/03/06 03:50:15;;;;;;;;;78.25;62.75;;;;;;;;5070903;27;45420;-67
2022/03/06 03:52:40;;;;;;;;;75.75;60.50;;;;;;;;5068850;27;45449;-67
2022/03/06 03:55:06;;;;;;;;;79.00;63.00;;;;;;;;5074838;27;47768;-66
2022/03/06 03:57:31;;;;;;;;;80.25;64.75;;;;;;;;5077055;27;45519;-66
2022/03/06 03:59:56;;;;;;;;;75.75;59.75;;;;;;;;5075809;27;45635;-67
2022/03/06 04:02:22;;;;;;;;;71.00;57.00;;;;;;;;5076680;27;45492;-68
2022/03/06 04:04:47;;;;;;;;;81.00;62.00;;;;;;;;5082027;27;46452;-66
2022/03/06 04:07:12;;;;;;;;;81.00;63.00;;;;;;;;5085325;27;46382;-65
2022/03/06 04:09:37;;;;;;;;;81.75;62.25;;;;;;;;5080932;27;45623;-67
2022/03/06 04:12:03;;;;;;;;;80.75;63.75;;;;;;;;5085025;27;46289;-67
2022/03/06 04:14:28;;;;;;;;;77.50;59.75;;;;;;;;5068735;27;48900;-67
2022/03/06 04:16:53;;;;;;;;;75.75;60.75;;;;;;;;5072878;27;46295;-66
2022/03/06 04:19:19;;;;;;;;;77.50;61.50;;;;;;;;5075775;27;45348;-67
2022/03/06 04:21:44;;;;;;;;;86.50;65.50;;;;;;;;5082913;27;45549;-66
2022/03/06 04:24:09;;;;;;;;;78.00;62.00;;;;;;;;5072215;27;45593;-67
2022/03/06 04:26:35;;;;;;;;;77.75;61.25;;;;;;;;5083667;27;45461;-67
2022/03/06 04:29:00;;;;;;;;;76.50;61.00;;;;;;;;5074565;27;45363;-67
2022/03/06 04:31:26;;;;;;;;;77.50;61.50;;;;;;;;5072322;27;45402;-66
2022/03/06 04:33:51;;;;;;;;;80.00;63.75;;;;;;;;5077772;27;45495;-67
2022/03/06 04:36:16;;;;;;;;;78.25;60.00;;;;;;;;5064807;28;45438;-68
2022/03/06 04:38:41;;;;;;;;;82.75;64.75;;;;;;;;5075544;27;45542;-66
2022/03/06 04:41:07;;;;;;;;;78.25;62.50;;;;;;;;5071157;28;45613;-68
2022/03/06 04:43:32;;;;;;;;;81.50;64.75;;;;;;;;5073069;28;45371;-67
2022/03/06 04:45:57;;;;;;;;;80.50;64.00;;;;;;;;5071802;28;45476;-68
2022/03/06 04:48:22;;;;;;;;;82.25;63.25;;;;;;;;5072013;28;46070;-68
2022/03/06 04:50:48;;;;;;;;;78.75;62.75;;;;;;;;5070984;27;45531;-67
2022/03/06 04:53:13;;;;;;;;;77.50;62.25;;;;;;;;5063645;28;49236;-68
2022/03/06 04:55:38;;;;;;;;;76.25;62.00;;;;;;;;5068052;28;45265;-67
2022/03/06 04:58:03;;;;;;;;;79.25;61.50;;;;;;;;5070361;28;45337;-67
2022/03/06 05:00:29;;;;;;;;;77.75;60.75;;;;;;;;5072051;27;45400;-68
2022/03/06 05:02:54;;;;;;;;;76.25;60.50;;;;;;;;5071637;28;47739;-67
2022/03/06 05:05:19;;;;;;;;;75.75;59.75;;;;;;;;5073363;28;45742;-68
2022/03/06 05:07:45;;;;;;;;;82.00;63.00;;;;;;;;5071705;27;45362;-67
2022/03/06 05:10:10;;;;;;;;;79.00;60.25;;;;;;;;5069854;28;45352;-67
2022/03/06 05:12:36;;;;;;;;;85.50;63.00;;;;;;;;5071128;28;47649;-68
2022/03/06 05:15:01;;;;;;;;;74.25;58.25;;;;;;;;5072486;27;45304;-67
2022/03/06 05:17:26;;;;;;;;;87.00;65.75;;;;;;;;5074604;28;45342;-69
2022/03/06 05:19:52;;;;;;;;;83.25;61.75;;;;;;;;5072508;27;45436;-69
2022/03/06 05:22:17;;;;;;;;;78.50;63.50;;;;;;;;5071274;28;45465;-68
2022/03/06 05:24:42;;;;;;;;;80.75;62.50;;;;;;;;5070778;28;45649;-68
2022/03/06 05:27:08;;;;;;;;;80.75;61.25;;;;;;;;5056384;28;45362;-68
2022/03/06 05:29:33;;;;;;;;;75.50;58.50;;;;;;;;5072983;28;45552;-67
2022/03/06 05:31:58;;;;;;;;;86.25;65.00;;;;;;;;5071182;28;48056;-67
2022/03/06 05:34:23;;;;;;;;;80.25;63.25;;;;;;;;5069584;27;45397;-68
2022/03/06 05:36:49;;;;;;;;;84.75;64.25;;;;;;;;5070463;27;45913;-67
2022/03/06 05:39:14;;;;;;;;;78.25;63.25;;;;;;;;5072439;27;45622;-68
2022/03/06 05:41:39;;;;;;;;;81.00;64.00;;;;;;;;5072977;28;47785;-67
2022/03/06 05:44:04;;;;;;;;;75.50;59.25;;;;;;;;5069512;28;46260;-68
2022/03/06 05:46:30;;;;;;;;;77.50;61.00;;;;;;;;5069617;28;45378;-68
2022/03/06 05:48:55;;;;;;;;;77.75;60.25;;;;;;;;5069362;28;45490;-68
2022/03/06 05:51:20;;;;;;;;;79.50;63.50;;;;;;;;5071892;27;45558;-68
2022/03/06 05:53:45;;;;;;;;;85.75;65.50;;;;;;;;5072070;28;45404;-64
2022/03/06 05:56:10;;;;;;;;;81.50;63.25;;;;;;;;5073174;27;45747;-68
2022/03/06 05:58:36;;;;;;;;;75.00;60.25;;;;;;;;5070609;28;45451;-69
2022/03/06 06:01:01;;;;;;;;;83.25;62.25;;;;;;;;5070161;28;48688;-69
2022/03/06 06:03:27;;;;;;;;;82.50;63.75;;;;;;;;5070659;28;45480;-69
2022/03/06 06:05:52;;;;;;;;;84.75;63.50;;;;;;;;5072454;27;45488;-68
2022/03/06 06:08:17;;;;;;;;;81.75;62.75;;;;;;;;5069744;28;45406;-68
2022/03/06 06:10:43;;;;;;;;;80.75;63.75;;;;;;;;5071009;27;46410;-68
2022/03/06 06:13:09;;;;;;;;;88.50;68.50;;;;;;;;5070458;28;45973;-68
2022/03/06 06:15:35;;;;;;;;;80.50;63.25;;;;;;;;5070206;28;45507;-66
2022/03/06 06:18:01;;;;;;;;;85.75;67.50;;;;;;;;5070719;28;45570;-68
2022/03/06 06:20:26;;;;;;;;;80.75;62.75;;;;;;;;5072314;28;48355;-69
2022/03/06 06:22:53;;;;;;;;;79.75;64.00;;;;;;;;5070169;28;45512;-68
2022/03/06 06:25:18;;;;;;;;;84.50;64.75;;;;;;;;5069312;28;45494;-66
2022/03/06 06:27:43;;;;;;;;;80.25;62.25;;;;;;;;5069463;27;45412;-68
2022/03/06 06:30:09;;;;;;;;;77.00;60.50;;;;;;;;5071250;27;45504;-67
2022/03/06 06:32:34;;;;;;;;;80.00;64.00;;;;;;;;5072874;27;45583;-69
2022/03/06 06:35:00;;;;;;;;;85.00;65.50;;;;;;;;5067518;28;45456;-68
2022/03/06 06:37:25;;;;;;;;;88.75;68.00;;;;;;;;5069935;27;45307;-67
2022/03/06 06:39:50;;;;;;;;;79.75;65.00;;;;;;;;5069537;28;47489;-68
2022/03/06 06:42:15;;;;;;;;;78.75;65.00;;;;;;;;5070101;27;45345;-68
2022/03/06 06:44:40;;;;;;;;;83.00;65.75;;;;;;;;5072265;28;45350;-69
2022/03/06 06:47:06;;;;;;;;;88.25;70.50;;;;;;;;5068070;28;46116;-70
2022/03/06 06:49:31;;;;;;;;;89.00;71.75;;;;;;;;5063671;28;47570;-70
2022/03/06 06:51:56;;;;;;;;;88.75;71.75;;;;;;;;5069778;28;45458;-69
2022/03/06 06:54:21;;;;;;;;;79.75;64.00;;;;;;;;5069424;27;45419;-68
2022/03/06 06:56:47;;;;;;;;;83.00;66.25;;;;;;;;5070588;28;45432;-68
2022/03/06 06:59:13;;;;;;;;;83.75;65.00;;;;;;;;5072231;28;46474;-69
2022/03/06 07:01:39;;;;;;;;;82.25;65.75;;;;;;;;5069314;28;46264;-69
2022/03/06 07:04:04;;;;;;;;;85.75;67.50;;;;;;;;5069614;28;45362;-69
2022/03/06 07:06:29;;;;;;;;;82.50;65.00;;;;;;;;5070144;27;45274;-67
2022/03/06 07:08:54;;;;;;;;;89.25;66.25;;;;;;;;5070133;28;47630;-67
2022/03/06 07:11:20;;;;;;;;;85.75;66.00;;;;;;;;5071709;28;47552;-70
2022/03/06 07:13:45;;;;;;;;;89.50;67.50;;;;;;;;5069472;28;45487;-69
2022/03/06 07:16:10;;;;;;;;;84.75;66.25;;;;;;;;5069634;28;45909;-69
2022/03/06 07:18:36;;;;;;;;;85.25;66.75;;;;;;;;5071001;28;45577;-69
2022/03/06 07:21:02;;;;;;;;;81.75;65.25;;;;;;;;5073002;28;45529;-69
2022/03/06 07:23:28;;;;;;;;;86.25;67.25;;;;;;;;5075431;28;45369;-68
2022/03/06 07:25:53;;;;;;;;;86.00;68.25;;;;;;;;5072888;28;45397;-69
2022/03/06 07:28:18;;;;;;;;;93.00;71.50;;;;;;;;5074446;27;45472;-68
2022/03/06 07:30:43;;;;;;;;;83.50;65.25;;;;;;;;5072387;27;46100;-67
2022/03/06 07:33:09;;;;;;;;;85.25;62.50;;;;;;;;5073492;28;45411;-68
2022/03/06 07:35:34;;;;;;;;;88.75;69.25;;;;;;;;5075919;28;45598;-66
2022/03/06 07:37:59;;;;;;;;;79.50;63.75;;;;;;;;5072287;28;47361;-68
2022/03/06 07:40:25;;;;;;;;;91.25;73.75;;;;;;;;5074219;27;45499;-68
2022/03/06 07:42:50;;;;;;;;;88.75;68.50;;;;;;;;5074491;27;45730;-68
2022/03/06 07:45:16;;;;;;;;;85.25;64.75;;;;;;;;5071610;28;45543;-67
2022/03/06 07:47:41;;;;;;;;;80.50;62.75;;;;;;;;5075861;27;46381;-67
2022/03/06 07:50:08;;;;;;;;;88.75;66.75;;;;;;;;5071366;28;45945;-67
2022/03/06 07:52:33;;;;;;;;;81.50;63.25;;;;;;;;5072936;28;45400;-67
2022/03/06 07:54:59;;;;;;;;;62.50;48.75;;;;;;;;5072940;28;45592;-67
2022/03/06 07:57:24;;;;;;;;;87.25;65.25;;;;;;;;5074057;27;46387;-67
2022/03/06 07:59:50;;;;;;;;;81.00;62.25;;;;;;;;5073047;28;45571;-67
2022/03/06 08:02:15;;;;;;;;;84.00;67.50;;;;;;;;5073673;28;45482;-67
2022/03/06 08:04:40;;;;;;;;;83.00;63.50;;;;;;;;5072770;28;45642;-68
2022/03/06 08:07:06;;;;;;;;;89.25;66.75;;;;;;;;5074011;27;45590;-69
2022/03/06 08:09:31;;;;;;;;;87.25;66.50;;;;;;;;5073932;27;47837;-69
2022/03/06 08:11:56;;;;;;;;;85.00;65.75;;;;;;;;5074485;28;45551;-69
2022/03/06 08:14:21;;;;;;;;;79.75;62.75;;;;;;;;5073762;28;45357;-68
2022/03/06 08:16:46;;;;;;;;;76.00;60.25;;;;;;;;5071969;27;47525;-68
2022/03/06 08:19:12;;;;;;;;;83.75;66.00;;;;;;;;5071581;28;46174;-69
2022/03/06 08:21:39;;;;;;;;;80.50;61.50;;;;;;;;5072231;28;45975;-68
2022/03/06 08:24:04;;;;;;;;;86.25;65.25;;;;;;;;5071584;28;46254;-68
2022/03/06 08:26:29;;;;;;;;;83.50;62.50;;;;;;;;5074574;28;45444;-68
2022/03/06 08:28:55;;;;;;;;;74.00;59.75;;;;;;;;5073150;28;45352;-67
2022/03/06 08:31:20;;;;;;;;;78.25;61.25;;;;;;;;5069657;28;45540;-67
2022/03/06 08:33:45;;;;;;;;;80.75;63.25;;;;;;;;5071823;28;45542;-68
2022/03/06 08:36:11;;;;;;;;;84.00;64.75;;;;;;;;5073127;27;45987;-68
2022/03/06 08:38:36;;;;;;;;;78.50;63.00;;;;;;;;5086384;27;45445;-68
2022/03/06 08:41:02;;;;;;;;;82.50;66.00;;;;;;;;5068495;28;45781;-68
2022/03/06 08:43:27;;;;;;;;;74.00;59.25;;;;;;;;5071595;28;45281;-68
2022/03/06 08:45:52;;;;;;;;;83.25;65.00;;;;;;;;5071183;28;47711;-68
2022/03/06 08:48:18;;;;;;;;;74.25;58.00;;;;;;;;5071643;28;46071;-68
2022/03/06 08:50:43;;;;;;;;;71.75;57.25;;;;;;;;5074346;28;45408;-67
2022/03/06 08:53:08;;;;;;;;;71.75;56.75;;;;;;;;5072897;28;45342;-69
2022/03/06 08:55:33;;;;;;;;;73.25;58.00;;;;;;;;5072598;28;46415;-68
2022/03/06 08:57:58;;;;;;;;;71.75;56.00;;;;;;;;5071343;28;45618;-69
2022/03/06 09:00:24;;;;;;;;;73.00;57.00;;;;;;;;5071177;27;45363;-68
2022/03/06 09:02:50;;;;;;;;;69.25;55.50;;;;;;;;5067959;28;45580;-67
2022/03/06 09:05:15;;;;;;;;;66.75;54.00;;;;;;;;5070560;28;48253;-67
2022/03/06 09:07:40;;;;;;;;;65.75;52.25;;;;;;;;5071019;27;45407;-68
2022/03/06 09:10:06;;;;;;;;;70.00;54.25;;;;;;;;5070743;28;45560;-68
2022/03/06 09:12:31;;;;;;;;;65.50;52.75;;;;;;;;5071406;28;45423;-68
2022/03/06 09:14:56;;;;;;;;;68.25;53.00;;;;;;;;5072882;27;45955;-67
2022/03/06 09:17:22;;;;;;;;;70.75;54.75;;;;;;;;5072909;28;45750;-66
2022/03/06 09:19:47;;;;;;;;;68.00;54.25;;;;;;;;5071337;28;45461;-69
2022/03/06 09:22:13;;;;;;;;;61.75;48.00;;;;;;;;5072861;27;45378;-70
2022/03/06 09:24:38;;;;;;;;;68.00;53.00;;;;;;;;5055456;28;47353;-69
2022/03/06 09:27:03;;;;;;;;;69.50;54.25;;;;;;;;5072531;28;45558;-68
2022/03/06 09:29:29;;;;;;;;;63.00;52.00;;;;;;;;5074581;27;45404;-67
2022/03/06 09:31:54;;;;;;;;;61.50;51.00;;;;;;;;5070213;28;45416;-68
2022/03/06 09:34:19;;;;;;;;;64.50;52.00;;;;;;;;5071289;28;48551;-69
2022/03/06 09:36:45;;;;;;;;;64.75;52.50;;;;;;;;5071380;28;45445;-68
2022/03/06 09:39:10;;;;;;;;;61.50;50.00;;;;;;;;5072614;27;45373;-69
2022/03/06 09:41:38;;;;;;;;;61.75;49.50;;;;;;;;5074287;27;45861;-69
2022/03/06 09:44:05;;;;;;;;;61.00;50.75;;;;;;;;5068863;28;48913;-69
2022/03/06 09:46:33;;;;;;;;;61.00;48.75;;;;;;;;5069592;27;46305;-69
2022/03/06 09:48:58;;;;;;;;;57.25;46.50;;;;;;;;5061896;27;45871;-66
2022/03/06 09:51:23;;;;;;;;;62.25;49.50;;;;;;;;5070745;28;45393;-68
2022/03/06 09:53:48;;;;;;;;;58.75;46.00;;;;;;;;5071544;28;48331;-68
2022/03/06 09:56:14;;;;;;;;;59.75;49.25;;;;;;;;5067970;27;46170;-68
2022/03/06 09:58:39;;;;;;;;;67.00;51.75;;;;;;;;5064464;27;45894;-68
2022/03/06 10:01:04;;;;;;;;;55.50;46.50;;;;;;;;5069857;28;45452;-68
2022/03/06 10:03:32;;;;;;;;;63.50;50.00;;;;;;;;5068219;28;48004;-68
2022/03/06 10:05:58;;;;;;;;;59.50;48.75;;;;;;;;5069969;28;46278;-68
2022/03/06 10:08:28;;;;;;;;;53.25;44.50;;;;;;;;5070455;28;45516;-65
2022/03/06 10:10:53;;;;;;;;;62.00;49.50;;;;;;;;5069445;28;45441;-68
2022/03/06 10:13:22;;;;;;;;;51.00;41.75;;;;;;;;5071106;28;46201;-68
2022/03/06 10:16:02;;;;;;;;;51.50;42.25;;;;;;;;5070261;28;45528;-68
2022/03/06 10:18:31;;;;;;;;;52.50;43.75;;;;;;;;5069498;27;45409;-68
2022/03/06 10:21:02;;;;;;;;;52.50;43.75;;;;;;;;5067390;27;45442;-67
2022/03/06 10:23:28;;;;;;;;;51.50;44.75;;;;;;;;5081668;27;46463;-67
2022/03/06 10:26:19;;;;;;;;;54.75;46.00;;;;;;;;5076177;27;46044;-67
2022/03/06 10:28:50;;;;;;;;;52.75;43.25;;;;;;;;5062985;27;45635;-68
2022/03/06 10:31:16;;;;;;;;;50.50;40.25;;;;;;;;5073447;27;45549;-69
2022/03/06 10:33:52;;;;;;;;;46.50;39.75;;;;;;;;5080328;27;47472;-69
2022/03/06 10:36:28;;;;;;;;;43.00;38.75;;;;;;;;5085489;27;45478;-67
2022/03/06 10:38:54;;;;;;;;;51.25;42.25;;;;;;;;5080581;27;45411;-68
2022/03/06 10:41:19;;;;;;;;;47.00;38.75;;;;;;;;5089546;27;45320;-69
2022/03/06 10:43:44;;;;;;;;;48.25;38.50;;;;;;;;5079431;27;45467;-69
2022/03/06 10:46:14;;;;;;;;;42.25;36.75;;;;;;;;5085894;27;45431;-68
2022/03/06 10:48:40;;;;;;;;;44.75;38.25;;;;;;;;5086526;27;45668;-68
2022/03/06 10:51:07;;;;;;;;;44.25;37.50;;;;;;;;5077830;27;46192;-69
2022/03/06 10:53:33;;;;;;;;;42.75;35.00;;;;;;;;5090969;27;47576;-68
2022/03/06 10:56:14;;;;;;;;;41.75;36.50;;;;;;;;5085499;27;45771;-68
2022/03/06 10:58:41;;;;;;;;;38.75;34.75;;;;;;;;5092487;27;45535;-68
2022/03/06 11:01:06;;;;;;;;;37.75;32.00;;;;;;;;5088188;27;45424;-67
2022/03/06 11:03:34;;;;;;;;;32.00;30.75;;;;;;;;5092440;27;45767;-69
2022/03/06 11:06:00;;;;;;;;;34.75;29.25;;;;;;;;5094109;27;46240;-69
2022/03/06 11:08:25;;;;;;;;;72.00;56.25;;;;;;;;5089990;27;45341;-68
2022/03/06 11:10:51;;;;;;;;;49.75;41.50;;;;;;;;5090415;27;45434;-69
2022/03/06 11:13:16;;;;;;;;;38.50;33.25;;;;;;;;5087668;27;47232;-68
2022/03/06 11:15:42;;;;;;;;;31.75;29.75;;;;;;;;5087014;27;45334;-66
2022/03/06 11:18:07;;;;;;;;;29.50;28.25;;;;;;;;5093158;27;45705;-68
2022/03/06 11:20:33;;;;;;;;;27.50;27.25;;;;;;;;5091107;27;45429;-67
2022/03/06 11:23:17;;;;;;;;;22.75;19.50;;;;;;;;5090327;27;47755;-68
2022/03/06 11:25:51;;;;;;;;;15.75;13.25;;;;;;;;5083802;27;45422;-69
2022/03/06 11:28:31;;;;;;;;;30.75;29.00;;;;;;;;5090611;27;45969;-69
2022/03/06 11:30:58;;;;;;;;;29.25;25.50;;;;;;;;5090026;27;45572;-69
2022/03/06 11:33:23;;;;;;;;;32.00;29.50;;;;;;;;5083982;27;47191;-70
2022/03/06 11:35:50;;;;;;;;;29.75;29.75;;;;;;;;5097841;27;45306;-68
2022/03/06 11:38:20;;;;;;;;;27.50;27.00;;;;;;;;5086160;27;45394;-68
2022/03/06 11:40:47;;;;;;;;;30.50;30.00;;;;;;;;5078036;27;45634;-69
2022/03/06 11:43:33;;;;;;;;;31.75;30.00;;;;;;;;5080946;27;48437;-70
2022/03/06 11:45:58;;;;;;;;;27.50;25.75;;;;;;;;5088619;27;45569;-69
2022/03/06 11:48:44;;;;;;;;;31.00;28.75;;;;;;;;5092843;27;46113;-69
2022/03/06 11:51:15;;;;;;;;;32.75;30.75;;;;;;;;5081742;27;45351;-67
2022/03/06 11:53:46;;;;;;;;;27.25;26.25;;;;;;;;5091605;27;46483;-66
2022/03/06 11:56:34;;;;;;;;;30.00;28.50;;;;;;;;5085460;27;46391;-66
2022/03/06 11:59:10;;;;;;;;;31.75;28.50;;;;;;;;5091166;27;45953;-67
2022/03/06 12:01:35;;;;;;;;;32.00;30.50;;;;;;;;5076689;27;45608;-67
2022/03/06 12:04:01;;;;;;;;;30.75;29.00;;;;;;;;5072233;27;47324;-68
2022/03/06 12:06:27;;;;;;;;;26.75;24.00;;;;;;;;5066139;27;45374;-66
2022/03/06 12:08:53;;;;;;;;;30.00;26.25;;;;;;;;5076677;27;45473;-68
2022/03/06 12:11:19;;;;;;;;;32.75;30.50;;;;;;;;5074490;27;45671;-68
2022/03/06 12:13:48;;;;;;;;;33.50;31.75;;;;;;;;5078352;27;46478;-67
2022/03/06 12:16:15;;;;;;;;;31.00;29.25;;;;;;;;5086315;27;45518;-67
2022/03/06 12:19:00;;;;;;;;;40.75;32.50;;;;;;;;5086412;27;45436;-66
2022/03/06 12:21:25;;;;;;;;;26.75;25.25;;;;;;;;5075926;27;45580;-68
2022/03/06 12:24:08;;;;;;;;;33.00;30.50;;;;;;;;5093391;27;45399;-68
2022/03/06 12:26:46;;;;;;;;;30.00;29.25;;;;;;;;5086094;27;45499;-68
2022/03/06 12:29:30;;;;;;;;;33.50;30.25;;;;;;;;5087181;27;45429;-66
2022/03/06 12:31:55;;;;;;;;;33.25;30.00;;;;;;;;5080814;27;45515;-67
2022/03/06 12:34:39;;;;;;;;;27.75;26.50;;;;;;;;5085844;27;48556;-66
2022/03/06 12:37:05;;;;;;;;;25.75;25.75;;;;;;;;5083025;27;45401;-67
2022/03/06 12:39:30;;;;;;;;;33.50;30.00;;;;;;;;5080415;27;45451;-67
2022/03/06 12:41:56;;;;;;;;;37.75;32.50;;;;;;;;5090005;27;45558;-67
2022/03/06 12:44:27;;;;;;;;;32.00;28.75;;;;;;;;5082077;27;46714;-67
2022/03/06 12:46:52;;;;;;;;;29.50;28.50;;;;;;;;5087744;27;45538;-68
2022/03/06 12:49:20;;;;;;;;;33.50;30.50;;;;;;;;5080943;27;45418;-67
2022/03/06 12:51:47;;;;;;;;;35.75;33.00;;;;;;;;5076221;27;45588;-67
2022/03/06 12:54:17;;;;;;;;;30.25;28.00;;;;;;;;5060155;27;45832;-68
2022/03/06 12:56:42;;;;;;;;;24.25;23.50;;;;;;;;5067286;27;45471;-67
2022/03/06 12:59:09;;;;;;;;;28.25;27.00;;;;;;;;5087467;27;47042;-67
2022/03/06 13:01:36;;;;;;;;;32.00;30.75;;;;;;;;5077608;27;45965;-68
2022/03/06 13:04:02;;;;;;;;;33.00;30.25;;;;;;;;5079940;27;46464;-68
2022/03/06 13:06:27;;;;;;;;;32.75;31.25;;;;;;;;5067562;27;45597;-67
2022/03/06 13:08:53;;;;;;;;;38.25;33.50;;;;;;;;5080063;27;45941;-66
2022/03/06 13:11:18;;;;;;;;;30.50;30.00;;;;;;;;5091518;27;45415;-68
2022/03/06 13:13:43;;;;;;;;;29.75;29.25;;;;;;;;5072593;27;46119;-68
2022/03/06 13:16:08;;;;;;;;;30.25;27.75;;;;;;;;5075661;27;45544;-68
2022/03/06 13:18:35;;;;;;;;;38.00;33.50;;;;;;;;5082963;27;45417;-68
2022/03/06 13:21:00;;;;;;;;;34.25;31.25;;;;;;;;5074870;27;45475;-68
2022/03/06 13:23:26;;;;;;;;;38.00;32.75;;;;;;;;5091294;27;47412;-66
2022/03/06 13:25:51;;;;;;;;;23.25;22.25;;;;;;;;5083753;27;45356;-68
2022/03/06 13:28:16;;;;;;;;;30.25;28.50;;;;;;;;5086976;27;45508;-67
2022/03/06 13:30:42;;;;;;;;;31.50;23.75;;;;;;;;5085957;27;50432;-68
2022/03/06 13:33:07;;;;;;;;;27.50;26.75;;;;;;;;5088899;27;46928;-65
2022/03/06 13:35:37;;;;;;;;;29.50;27.00;;;;;;;;5092652;27;45412;-68
2022/03/06 13:38:05;;;;;;;;;37.75;33.50;;;;;;;;5082648;27;45318;-68
2022/03/06 13:40:32;;;;;;;;;31.75;27.75;;;;;;;;5087987;27;45460;-69
2022/03/06 13:42:58;;;;;;;;;28.50;27.50;;;;;;;;5084568;27;47928;-68
2022/03/06 13:45:23;;;;;;;;;33.75;28.75;;;;;;;;5083761;27;46036;-69
2022/03/06 13:47:50;;;;;;;;;32.00;29.00;;;;;;;;5092303;27;45427;-68
2022/03/06 13:50:19;;;;;;;;;31.50;26.25;;;;;;;;5085721;27;45518;-68
2022/03/06 13:52:44;;;;;;;;;25.00;23.00;;;;;;;;5067974;27;47884;-68
2022/03/06 13:55:11;;;;;;;;;28.50;27.00;;;;;;;;5073972;27;45650;-68
2022/03/06 13:57:36;;;;;;;;;29.25;28.50;;;;;;;;5085074;27;45445;-68
2022/03/06 14:00:22;;;;;;;;;33.25;30.50;;;;;;;;5088324;27;45439;-66
2022/03/06 14:02:57;;;;;;;;;33.75;30.75;;;;;;;;5084111;27;47688;-67
2022/03/06 14:05:32;;;;;;;;;21.00;21.00;;;;;;;;5062695;27;45509;-68
2022/03/06 14:08:14;;;;;;;;;39.00;32.25;;;;;;;;5077828;27;45418;-66
2022/03/06 14:10:44;;;;;;;;;25.50;23.00;;;;;;;;5075557;27;45535;-68
2022/03/06 14:13:38;;;;;;;;;33.75;32.50;;;;;;;;5078239;27;48477;-67